createdAt,value
2023-01-17T00:04:05.750Z,91370.00
2023-01-17T00:08:30.320Z,91370.00
2023-01-17T00:12:34.132Z,91370.00
2023-01-17T00:16:37.616Z,91375.00
2023-01-17T00:21:25.018Z,91386.00
2023-01-17T00:25:53.331Z,91378.00
2023-01-17T00:29:55.539Z,91390.00
2023-01-17T00:34:10.759Z,91391.00
2023-01-17T00:38:16.158Z,91399.00
2023-01-17T00:42:18.394Z,91402.00
2023-01-17T00:46:43.001Z,91403.00
2023-01-17T00:51:03.991Z,91415.00
2023-01-17T01:00:37.115Z,91405.00
2023-01-17T01:09:41.184Z,91407.00
2023-01-17T01:14:03.338Z,91405.00
2023-01-17T01:18:24.935Z,91403.00
2023-01-17T01:33:01.751Z,91406.00
2023-01-17T01:37:05.141Z,91411.00
2023-01-17T01:41:19.915Z,91412.00
2023-01-17T01:45:25.494Z,91403.00
2023-01-17T01:49:30.579Z,91400.00
2023-01-17T01:53:44.601Z,91399.00
2023-01-17T01:57:51.256Z,91391.00
2023-01-17T02:02:19.719Z,91380.00
2023-01-17T02:06:38.015Z,91386.00
2023-01-17T02:10:44.142Z,91378.00
2023-01-17T02:14:48.787Z,91389.00
2023-01-17T02:19:06.851Z,91394.00
2023-01-17T02:23:46.136Z,91395.00
2023-01-17T02:28:39.679Z,91390.00
2023-01-17T02:33:27.710Z,91392.00
2023-01-17T02:37:58.407Z,91395.00
2023-01-17T02:42:06.806Z,91383.00
2023-01-17T02:46:28.590Z,91386.00
2023-01-17T02:51:12.262Z,91386.00
2023-01-17T02:55:38.219Z,91388.00
2023-01-17T02:59:55.997Z,91390.00
2023-01-17T03:04:07.115Z,91389.00
2023-01-17T03:08:12.901Z,91390.00
2023-01-17T03:12:16.926Z,91376.00
2023-01-17T03:16:22.425Z,91382.00
2023-01-17T03:20:39.317Z,91389.00
2023-01-17T03:24:44.180Z,91385.00
2023-01-17T03:28:54.975Z,91383.00
2023-01-17T03:32:58.445Z,91404.00
2023-01-17T03:37:01.819Z,91395.00
2023-01-17T03:41:07.837Z,91413.00
2023-01-17T03:45:12.055Z,91401.00
2023-01-17T03:49:16.884Z,91408.00
2023-01-17T03:53:20.361Z,91398.00
2023-01-17T03:57:51.182Z,91401.00
2023-01-17T04:01:55.802Z,91397.00
2023-01-17T04:05:59.290Z,91399.00
2023-01-17T04:10:02.729Z,91402.00
2023-01-17T04:14:07.660Z,91416.00
2023-01-17T04:18:13.332Z,91416.00
2023-01-17T04:22:16.784Z,91415.00
2023-01-17T04:26:20.133Z,91421.00
2023-01-17T04:31:02.105Z,91426.00
2023-01-17T04:35:09.549Z,91423.00
2023-01-17T04:39:39.663Z,91414.00
2023-01-17T04:43:43.033Z,91423.00
2023-01-17T04:47:46.449Z,91430.00
2023-01-17T04:51:59.713Z,91433.00
2023-01-17T04:56:03.252Z,91439.00
2023-01-17T05:00:07.704Z,91447.00
2023-01-17T05:04:36.395Z,91448.00
2023-01-17T05:08:41.256Z,91449.00
2023-01-17T05:12:46.284Z,91437.00
2023-01-17T05:16:50.669Z,91459.00
2023-01-17T05:20:54.158Z,91457.00
2023-01-17T05:24:59.053Z,91453.00
2023-01-17T05:29:02.683Z,91470.00
2023-01-17T05:33:06.132Z,91470.00
2023-01-17T05:37:09.549Z,91467.00
2023-01-17T05:41:26.833Z,91470.00
2023-01-17T05:45:31.679Z,91483.00
2023-01-17T05:49:35.104Z,91487.00
2023-01-17T05:54:47.665Z,91479.00
2023-01-17T05:58:52.799Z,91486.00
2023-01-17T06:02:57.469Z,91493.00
2023-01-17T06:07:19.375Z,91506.00
2023-01-17T06:11:26.113Z,91507.00
2023-01-17T06:15:31.003Z,91518.00
2023-01-17T06:19:34.544Z,91521.00
2023-01-17T06:23:38.214Z,91542.00
2023-01-17T06:27:41.782Z,91541.00
2023-01-17T06:31:48.001Z,91556.00
2023-01-17T06:35:51.666Z,91553.00
2023-01-17T06:39:55.021Z,91566.00
2023-01-17T06:44:00.593Z,91579.00
2023-01-17T06:48:06.279Z,91559.00
2023-01-17T06:52:38.797Z,91567.00
2023-01-17T06:56:42.215Z,91567.00
2023-01-17T07:00:46.140Z,91564.00
2023-01-17T07:05:05.939Z,91552.00
2023-01-17T07:09:09.365Z,91557.00
2023-01-17T07:13:13.012Z,91570.00
2023-01-17T07:22:53.624Z,91599.00
2023-01-17T07:26:57.085Z,91595.00
2023-01-17T07:31:26.252Z,91596.00
2023-01-17T07:35:29.690Z,91597.00
2023-01-17T07:39:52.928Z,91606.00
2023-01-17T07:43:56.533Z,91593.00
2023-01-17T07:48:06.316Z,91597.00
2023-01-17T07:52:10.669Z,91601.00
2023-01-17T07:56:16.478Z,91597.00
2023-01-17T08:00:20.707Z,91599.00
2023-01-17T08:04:27.068Z,91587.00
2023-01-17T08:08:31.775Z,91582.00
2023-01-17T08:13:03.026Z,91578.00
2023-01-17T08:17:07.268Z,91591.00
2023-01-17T08:21:16.905Z,91594.00
2023-01-17T08:25:20.359Z,91608.00
2023-01-17T08:30:15.724Z,91613.00
2023-01-17T08:34:20.757Z,91601.00
2023-01-17T08:38:24.962Z,91600.00
2023-01-17T08:42:28.392Z,91600.00
2023-01-17T08:46:39.855Z,91598.00
2023-01-17T08:50:44.827Z,91616.00
2023-01-17T08:54:48.408Z,91615.00
2023-01-17T08:58:52.938Z,91613.00
2023-01-17T09:02:56.374Z,91632.00
2023-01-17T09:07:02.797Z,91637.00
2023-01-17T09:11:07.283Z,91639.00
2023-01-17T09:21:13.851Z,91650.00
2023-01-17T09:25:40.055Z,91646.00
2023-01-17T09:29:43.566Z,91663.00
2023-01-17T09:33:47.011Z,91677.00
2023-01-17T09:37:52.363Z,91667.00
2023-01-17T09:42:03.504Z,91669.00
2023-01-17T09:46:22.791Z,91659.00
2023-01-17T09:50:39.761Z,91664.00
2023-01-17T09:54:45.100Z,91659.00
2023-01-17T09:59:04.984Z,91646.00
2023-01-17T10:03:46.300Z,91646.00
2023-01-17T10:08:24.626Z,91640.00
2023-01-17T10:12:39.589Z,91628.00
2023-01-17T10:17:01.243Z,91622.00
2023-01-17T10:21:15.499Z,91589.00
2023-01-17T10:25:49.015Z,91579.00
2023-01-17T10:30:19.425Z,91574.00
2023-01-17T10:34:47.614Z,91563.00
2023-01-17T10:38:54.297Z,91552.00
2023-01-17T10:43:04.646Z,91555.00
2023-01-17T10:47:25.332Z,91550.00
2023-01-17T10:52:01.273Z,91546.00
2023-01-17T10:56:05.412Z,91544.00
2023-01-17T11:00:26.372Z,91546.00
2023-01-17T11:04:54.590Z,91541.00
2023-01-17T11:09:01.253Z,91532.00
2023-01-17T11:13:07.325Z,91530.00
2023-01-17T11:17:12.432Z,91533.00
2023-01-17T11:21:38.256Z,91527.00
2023-01-17T11:25:52.297Z,91519.00
2023-01-17T11:30:17.059Z,91516.00
2023-01-17T11:34:25.493Z,91511.00
2023-01-17T11:38:59.117Z,91518.00
2023-01-17T11:43:25.662Z,91531.00
2023-01-17T11:47:29.074Z,91513.00
2023-01-17T11:51:34.678Z,91506.00
2023-01-17T11:56:05.262Z,91509.00
2023-01-17T12:00:27.434Z,91503.00
2023-01-17T12:04:36.680Z,91487.00
2023-01-17T12:09:54.136Z,91470.00
2023-01-17T12:14:15.777Z,91464.00
2023-01-17T12:18:37.719Z,91438.00
2023-01-17T12:23:08.416Z,91440.00
2023-01-17T12:27:22.979Z,91441.00
2023-01-17T12:31:35.135Z,91432.00
2023-01-17T12:35:45.457Z,91434.00
2023-01-17T12:40:12.525Z,91458.00
2023-01-17T12:44:19.770Z,91477.00
2023-01-17T12:48:27.202Z,91480.00
2023-01-17T12:52:46.589Z,91488.00
2023-01-17T12:56:55.467Z,91499.00
2023-01-17T13:01:04.209Z,91490.00
2023-01-17T13:05:15.396Z,91493.00
2023-01-17T13:09:23.708Z,91489.00
2023-01-17T13:13:29.359Z,91472.00
2023-01-17T13:17:42.925Z,91468.00
2023-01-17T13:21:49.181Z,91463.00
2023-01-17T13:26:44.531Z,91466.00
2023-01-17T13:31:15.740Z,91449.00
2023-01-17T13:35:28.799Z,91432.00
2023-01-17T13:40:06.976Z,91421.00
2023-01-17T13:44:27.931Z,91432.00
2023-01-17T13:48:38.027Z,91426.00
2023-01-17T13:52:42.819Z,91416.00
2023-01-17T13:57:23.345Z,91426.00
2023-01-17T14:01:52.333Z,91428.00
2023-01-17T14:05:58.737Z,91431.00
2023-01-17T14:10:53.435Z,91411.00
2023-01-17T14:14:58.474Z,91411.00
2023-01-17T14:19:02.269Z,91406.00
2023-01-17T14:23:38.825Z,91419.00
2023-01-17T14:28:09.084Z,91390.00
2023-01-17T14:32:39.886Z,91387.00
2023-01-17T14:36:43.448Z,91387.00
2023-01-17T14:40:57.678Z,91388.00
2023-01-17T14:45:06.952Z,91380.00
2023-01-17T14:49:27.054Z,91369.00
2023-01-17T14:53:31.682Z,91340.00
2023-01-17T14:57:36.643Z,91323.00
2023-01-17T15:01:41.704Z,91323.00
2023-01-17T15:05:48.537Z,91313.00
2023-01-17T15:09:52.256Z,91313.00
2023-01-17T15:13:59.800Z,91297.00
2023-01-17T15:18:13.102Z,91274.00
2023-01-17T15:22:17.448Z,91259.00
2023-01-17T15:26:25.549Z,91259.00
2023-01-17T15:30:31.367Z,91252.00
2023-01-17T15:34:37.767Z,91238.00
2023-01-17T15:39:55.000Z,91224.00
2023-01-17T15:43:59.078Z,91259.00
2023-01-17T15:48:40.846Z,91277.00
2023-01-17T15:52:51.356Z,91263.00
2023-01-17T15:57:21.365Z,91279.00
2023-01-17T16:01:41.418Z,91270.00
2023-01-17T16:05:45.390Z,91259.00
2023-01-17T16:09:51.250Z,91225.00
2023-01-17T16:13:58.907Z,91229.00
2023-01-17T16:18:06.679Z,91237.00
2023-01-17T16:22:10.784Z,91256.00
2023-01-17T16:26:17.513Z,91263.00
2023-01-17T16:30:22.798Z,91253.00
2023-01-17T16:34:26.136Z,91254.00
2023-01-17T16:38:32.366Z,91279.00
2023-01-17T16:42:37.295Z,91270.00
2023-01-17T16:46:41.734Z,91275.00
2023-01-17T16:50:48.401Z,91286.00
2023-01-17T16:54:53.104Z,91280.00
2023-01-17T16:58:58.062Z,91248.00
2023-01-17T17:03:01.592Z,91237.00
2023-01-17T17:07:18.509Z,91242.00
2023-01-17T17:17:48.272Z,91263.00
2023-01-17T17:21:51.873Z,91268.00
2023-01-17T17:25:59.547Z,91262.00
2023-01-17T17:30:02.949Z,91226.00
2023-01-17T17:34:35.093Z,91231.00
2023-01-17T17:43:20.382Z,91224.00
2023-01-17T17:47:24.472Z,91226.00
2023-01-17T17:51:31.873Z,91228.00
2023-01-17T17:55:36.532Z,91229.00
2023-01-17T17:59:42.177Z,91221.00
2023-01-17T18:03:45.575Z,91235.00
2023-01-17T18:07:51.190Z,91233.00
2023-01-17T18:11:55.208Z,91216.00
2023-01-17T18:16:07.774Z,91211.00
2023-01-17T18:20:12.180Z,91210.00
2023-01-17T18:24:24.078Z,91203.00
2023-01-17T18:28:27.541Z,91202.00
2023-01-17T18:32:31.026Z,91211.00
2023-01-17T18:42:06.795Z,91213.00
2023-01-17T18:46:40.300Z,91206.00
2023-01-17T18:50:43.840Z,91195.00
2023-01-17T18:55:12.507Z,91196.00
2023-01-17T18:59:18.672Z,91204.00
2023-01-17T19:03:48.504Z,91193.00
2023-01-17T19:07:51.949Z,91189.00
2023-01-17T19:12:25.734Z,91178.00
2023-01-17T19:16:33.144Z,91187.00
2023-01-17T19:20:36.850Z,91191.00
2023-01-17T19:24:53.253Z,91185.00
2023-01-17T19:28:59.007Z,91166.00
2023-01-17T19:33:12.066Z,91185.00
2023-01-17T19:37:15.572Z,91169.00
2023-01-17T19:41:23.272Z,91173.00
2023-01-17T19:45:27.185Z,91157.00
2023-01-17T19:49:34.097Z,91153.00
2023-01-17T19:53:38.550Z,91152.00
2023-01-17T19:58:06.468Z,91163.00
2023-01-17T20:02:15.014Z,91158.00
2023-01-17T20:06:22.118Z,91151.00
2023-01-17T20:10:25.566Z,91166.00
2023-01-17T20:14:29.049Z,91171.00
2023-01-17T20:18:33.621Z,91166.00
2023-01-17T20:22:42.691Z,91163.00
2023-01-17T20:26:46.201Z,91176.00
2023-01-17T20:30:49.636Z,91158.00
2023-01-17T20:35:43.204Z,91170.00
2023-01-17T20:39:48.221Z,91177.00
2023-01-17T20:44:41.095Z,91157.00
2023-01-17T20:48:46.313Z,91171.00
2023-01-17T20:52:50.835Z,91184.00
2023-01-17T20:56:55.728Z,91156.00
2023-01-17T21:00:59.782Z,91174.00
2023-01-17T21:05:30.989Z,91180.00
2023-01-17T21:09:35.739Z,91187.00
2023-01-17T21:13:41.309Z,91165.00
2023-01-17T21:17:45.070Z,91155.00
2023-01-17T21:21:50.215Z,91148.00
2023-01-17T21:26:59.419Z,91139.00
2023-01-17T21:31:20.826Z,91148.00
2023-01-17T21:35:24.323Z,91144.00
2023-01-17T21:39:29.229Z,91145.00
2023-01-17T21:49:33.188Z,91148.00
2023-01-17T21:53:37.115Z,91141.00
2023-01-17T21:58:02.981Z,91151.00
2023-01-17T22:02:10.650Z,91132.00
2023-01-17T22:06:15.725Z,91140.00
2023-01-17T22:10:19.339Z,91128.00
2023-01-17T22:14:22.787Z,91135.00
2023-01-17T22:18:29.709Z,91140.00
2023-01-17T22:22:34.926Z,91149.00
2023-01-17T22:26:41.920Z,91160.00
2023-01-17T22:30:45.586Z,91158.00
2023-01-17T22:35:13.847Z,91154.00
2023-01-17T22:39:44.895Z,91162.00
2023-01-17T22:43:52.459Z,91145.00
2023-01-17T22:47:55.927Z,91142.00
2023-01-17T22:52:06.966Z,91142.00
2023-01-17T22:56:15.182Z,91138.00
2023-01-17T23:00:19.033Z,91139.00
2023-01-17T23:04:28.363Z,91144.00
2023-01-17T23:08:31.722Z,91132.00
2023-01-17T23:12:36.626Z,91135.00
2023-01-17T23:23:38.155Z,91135.00
2023-01-17T23:32:56.728Z,91142.00
2023-01-17T23:37:01.739Z,91138.00
2023-01-17T23:46:16.826Z,91149.00
2023-01-17T23:50:20.257Z,91150.00
2023-01-17T23:54:23.821Z,91152.00
2023-01-17T23:59:33.294Z,91154.00
